Detalii statie TRANSAVIA GRUP [00001CF7]

Toti senzorii

Date Temperatura solului [C]Precipitatii [mm]Voltaj baterie [mV]HC Air temperature [C]HC Relative humidity [%]Punctul de roua [C]
medieminmaxsumaultimamedieminmaxmediemediemin
2018-06-20 10:00:00 21 20.9 21.3 0 7304 25.23 24.54 26.01 0.77 0
2018-06-20 11:00:00 21.3 21.2 21.5 0 7304 26.54 25.63 27.47 0 0 0
2018-06-20 12:00:00 21.6 21.4 21.8 0 7304 27.65 27.05 28.23 16.66 4.6 0
2018-06-20 13:00:00 22.1 21.9 22.4 0 7304 28.45 27.88 28.7 14.07 4.2 0
2018-06-20 14:00:00 22.6 22.3 22.8 0 7294 29.13 28.8 29.48 14.87 2.8 0
2018-06-20 15:00:00 23.1 22.9 23.3 0 7304 30.09 29.54 30.71 36.22 11.6 0
2018-06-20 16:00:00 23.4 23.3 23.6 0 7246 30.23 29.89 30.88 38.76 8.3 0
2018-06-20 17:00:00 23.6 23.5 23.8 0 7060 30.01 29.29 30.96 3.28 0
2018-06-20 18:00:00 23.8 23.7 24 0 7040 29.29 28.8 29.92 20.13 3.4 0
2018-06-20 19:00:00 23.9 23.8 24 0 6962 29.03 26.69 30.03 20.01 0
2018-06-20 20:00:00 23.8 23.8 24 0 6922 25.4 24.84 26.54 5.5 -0.1 0
2018-06-20 21:00:00 23.7 23.6 23.9 0 6922 23.76 22.93 24.64 0 0 0
2018-06-20 22:00:00 23.5 23.4 23.7 0 6904 22.92 22.44 23.5 0 0 0
2018-06-20 23:00:00 23.4 23.2 23.5 0 6894 20.82 20.04 22.32 0 0 0
2018-06-21 00:00:00 23.2 23.1 23.4 0 6894 19.93 19.38 20.4 0 0 0
2018-06-21 01:00:00 23 22.9 23.2 0 6874 19.12 18.68 19.34 0 0 0
2018-06-21 02:00:00 22.7 22.7 22.9 0 6864 18.82 18.64 19.05 0 0 0
2018-06-21 03:00:00 22.5 22.5 22.7 0 6854 18.47 17.89 18.87 0 0 0
2018-06-21 04:00:00 22.4 22.4 22.5 0 6844 17.67 17.39 17.96 0 0 0
2018-06-21 05:00:00 22.2 22.1 22.4 0 6816 16.95 16.64 17.28 0 0 0
2018-06-21 06:00:00 22 21.9 22.1 0 6844 17.4 16.63 18.2 0 0 0
2018-06-21 07:00:00 21.8 21.7 21.9 0 6922 19.96 18.43 21.22 0 0 0
2018-06-21 08:00:00 21.7 21.7 21.9 0 7000 22.68 20.98 24.47 0 0 0
2018-06-21 09:00:00 21.7 21.6 21.9 0 7148 24.86 24.37 25.21 0 0 0
2018-06-21 10:00:00 21.9 21.8 22 0 7304 25.78 25.07 26.45 0 0 0
2018-06-21 11:00:00 22 22 22.2 0 7304 27.27 26.49 28.2 0 0 0
2018-06-21 12:00:00 22.4 22.2 22.7 0 7176 28.68 27.75 29.64 2.72 0
2018-06-21 13:00:00 22.6 22.5 22.8 0 6972 27.41 26.26 28.32 19.6 0
2018-06-21 14:00:00 22.8 22.7 23 0 7010 24.68 24.27 25.81 88.75 22.4 18.7
2018-06-21 15:00:00 22.8 22.7 22.9 0 7070 23.71 22.5 24.39 74.34 18.3 10.4
2018-06-21 16:00:00 22.7 22.7 22.8 0 7118 23.1 21.75 23.89 37.62 0
2018-06-21 17:00:00 22.8 22.7 23 0 7010 23.89 23.05 24.69 39.59 6.5 -12.9
2018-06-21 18:00:00 22.7 22.7 22.8 0 6992 24.59 24.12 25.09 34.31 3.2 -13.5
2018-06-21 19:00:00 22.7 22.7 22.9 0 6922 23.47 22.85 23.83 0.17 0
2018-06-21 20:00:00 22.7 22.5 22.8 0 6904 21.59 20.22 22.62 0 0 0
2018-06-21 21:00:00 22.5 22.5 22.7 0 6894 18.88 18.09 19.84 0 0 0
2018-06-21 22:00:00 22.4 22.3 22.5 0 6884 17.79 17.56 17.94 0 0 0
2018-06-21 23:00:00 22.2 22.1 22.4 0 6864 17.22 16.65 17.79 8.26 0
2018-06-22 00:00:00 22 21.8 22.1 0 6844 16.2 15.53 16.5 41.6 0
2018-06-22 01:00:00 21.7 21.6 21.9 0 6816 15.53 15.17 15.86 41.66 0
2018-06-22 02:00:00 21.5 21.4 21.7 0 6816 15.3 15.04 15.5 41.66 0
2018-06-22 03:00:00 21.4 21.3 21.5 0 6796 15.76 15.49 15.94 50 7.8 0
2018-06-22 04:00:00 21.2 21.1 21.3 0.2 6776 15.63 15.32 15.89 33.33 5.1 0
2018-06-22 05:00:00 21 21 21.2 0 6766 15.41 15.01 15.73 33.33 5.1 0
2018-06-22 06:00:00 20.8 20.8 21 0 6796 15.79 15.18 16.79 0 0 0
2018-06-22 07:00:00 20.7 20.6 20.8 0 6854 17.6 16.75 18.74 0 0 0
2018-06-22 08:00:00 20.6 20.6 20.7 0 6922 20.11 19.17 21.27 0 0 0
2018-06-22 09:00:00 20.6 20.6 20.9 0 7176 23.38 21.58 24.37 0 0 0